Lincoln Park, NJ

09:00 AM EDT on Maio 24, 2015 (GMT -0400)
Duncan Avenue | | Change Station
CLOSE
Current Station
Personal Weather Stations
Location: Pequannock Township, NJ
Elevation: 197 ft
Nearby Weather Stations

Elev 197 ft 40.94 °N, 74.30 °W | Updated 13 minutes ago

Despexado
Despexado
70.0 °F
Feels Like 70.0 °F
N
1.1
Vento Variable Vento from SSL

Hoxe
High -- | Low -- °F
--% Chance of Precip.
Yesterday
High -- | Low -- °F
Precip. -- pol
5:32 AM 8:16 PM
Waxing Crescent, 39% visible
Presión 30.39 pol
Visibilidade 10.0 Millas
Nubes Despexado
Nivel de Rosada 45 °F
Humidade 41%
Rainfall 0.00 pol
Fondo da neve Not available.
UV 4 out of 12
Pollen 9.00 out of 12
Air Quality Not available.
Flu Activity Sporadic
METAR KCDW 241253Z VRB04KT 10SM CLR 16/05 A3037 RMK AO2 SLP291 T01610050

More Conditions Fewer Conditions

Presión 30.39 pol
Visibilidade 10.0 Millas
Nubes Despexado
Nivel de Rosada 45 °F
Humidade 41%
Rainfall 0.00 pol
Fondo da neve Not available.
UV 4 out of 12
Pollen 9.00 out of 12
Air Quality Not available.
Flu Activity Sporadic
METAR KCDW 241253Z VRB04KT 10SM CLR 16/05 A3037 RMK AO2 SLP291 T01610050

More Conditions Fewer Conditions

10-Day Weather Forecast

Almanac

Astronomía

May. 24, 2015 Rise Set
Tempo actual
Crepúsculo civil
Crepúsculo náutico
Crepúsculo astronómico
Lúa
Lonxitude da luz visíbel
Length of Day
Tomorrow will be .
, % of the Moon is Illuminated

Today's Extremes

State Highs State Lows

Community

WunderPhotos

Upload Photos

1,823,722 photos uploaded!

WunderBlogs® & News

Nearby

Air Quality

  Air Quality AQ Index Pollutant
Not available.

Snow Depth

Station Depth Elevation

Earthquake Activity

Cidade Distance Mag. Time & Date
Minimum magnitude displayed is 2.5.

Coastal Water Temperatures

Lugar Temperatura

Stations

Nearby Weather Stations

Station Location Temp Vento Xeado Nivel de Rosada Humidade Vento Precip. Elev Actualización Type